createdAt,value
2015-07-15T00:00:13.306Z,21.1
2015-07-15T00:00:31.806Z,21.1
2015-07-15T00:00:50.290Z,21
2015-07-15T00:01:08.750Z,21
2015-07-15T00:01:27.203Z,21
2015-07-15T00:01:45.860Z,21
2015-07-15T00:02:04.336Z,21.1
2015-07-15T00:02:22.805Z,21.1
2015-07-15T00:02:41.180Z,21.1
2015-07-15T00:02:59.727Z,21.1
2015-07-15T00:03:18.234Z,21.2
2015-07-15T00:03:36.812Z,21.2
2015-07-15T00:03:55.187Z,21.2
2015-07-15T00:04:13.677Z,21.3
2015-07-15T00:04:32.052Z,21.3
2015-07-15T00:04:50.490Z,21.3
2015-07-15T00:05:08.885Z,21.3
2015-07-15T00:05:27.291Z,21.2
2015-07-15T00:05:45.697Z,21.3
2015-07-15T00:06:04.106Z,21.3
2015-07-15T00:06:22.481Z,21.2
2015-07-15T00:06:41.044Z,21.2
2015-07-15T00:06:58.778Z,21.1
2015-07-15T00:07:17.283Z,21.1
2015-07-15T00:07:35.689Z,21.1
2015-07-15T00:07:54.221Z,21.1
2015-07-15T00:08:12.959Z,21.1
2015-07-15T00:08:31.740Z,21.1
2015-07-15T00:08:50.225Z,21.1
2015-07-15T00:09:08.711Z,21.1
2015-07-15T00:09:27.086Z,21.1
2015-07-15T00:09:45.555Z,21.1
2015-07-15T00:10:03.945Z,21
2015-07-15T00:10:22.417Z,20.9
2015-07-15T00:10:40.870Z,20.9
2015-07-15T00:10:59.558Z,21
2015-07-15T00:11:18.013Z,21
2015-07-15T00:11:36.591Z,20.9
2015-07-15T00:11:55.169Z,21
2015-07-15T00:12:13.593Z,21
2015-07-15T00:12:32.093Z,21
2015-07-15T00:12:50.593Z,20.9
2015-07-15T00:13:09.031Z,20.9
2015-07-15T00:13:27.409Z,21
2015-07-15T00:13:45.784Z,21
2015-07-15T00:14:04.471Z,21.1
2015-07-15T00:14:22.926Z,21.1
2015-07-15T00:14:41.520Z,21.1
2015-07-15T00:14:59.864Z,21.1
2015-07-15T00:15:18.663Z,21.1
2015-07-15T00:15:37.225Z,21.1
2015-07-15T00:15:55.678Z,21.1
2015-07-15T00:16:14.069Z,21.1
2015-07-15T00:16:32.853Z,21.1
2015-07-15T00:16:51.228Z,21.1
2015-07-15T00:17:09.697Z,21.2
2015-07-15T00:17:28.230Z,21.1
2015-07-15T00:17:46.668Z,21.1
2015-07-15T00:18:05.058Z,21.1
2015-07-15T00:18:23.608Z,21.1
2015-07-15T00:18:42.139Z,21.1
2015-07-15T00:19:00.702Z,21.1
2015-07-15T00:19:18.936Z,21.1
2015-07-15T00:19:37.469Z,21.2
2015-07-15T00:19:56.907Z,21.2
2015-07-15T00:20:14.407Z,21.2
2015-07-15T00:20:33.050Z,21.2
2015-07-15T00:20:51.737Z,21.2
2015-07-15T00:21:10.159Z,21.2
2015-07-15T00:21:28.692Z,21.2
2015-07-15T00:21:47.145Z,21.2
2015-07-15T00:22:05.692Z,21.2
2015-07-15T00:22:24.036Z,21.2
2015-07-15T00:22:42.491Z,21.2
2015-07-15T00:23:01.085Z,21.2
2015-07-15T00:23:19.694Z,21.2
2015-07-15T00:23:38.227Z,21.3
2015-07-15T00:23:56.727Z,21.3
2015-07-15T00:24:15.196Z,21.3
2015-07-15T00:24:33.603Z,21.2
2015-07-15T00:24:52.185Z,21.2
2015-07-15T00:25:10.700Z,21.2
2015-07-15T00:25:29.091Z,21.2
2015-07-15T00:25:48.323Z,21.2
2015-07-15T00:26:06.901Z,21.1
2015-07-15T00:26:26.323Z,21
2015-07-15T00:26:44.685Z,20.9
2015-07-15T00:27:03.278Z,20.9
2015-07-15T00:27:21.622Z,20.9
2015-07-15T00:27:40.141Z,20.9
2015-07-15T00:27:58.531Z,21
2015-07-15T00:28:17.016Z,21
2015-07-15T00:28:35.595Z,21
2015-07-15T00:28:54.157Z,21
2015-07-15T00:29:12.767Z,21
2015-07-15T00:29:31.189Z,21
2015-07-15T00:29:49.769Z,21
2015-07-15T00:30:08.394Z,21
2015-07-15T00:30:26.831Z,21
2015-07-15T00:30:45.318Z,21
2015-07-15T00:31:04.005Z,21.1
2015-07-15T00:31:22.568Z,21.1
2015-07-15T00:31:41.070Z,21.1
2015-07-15T00:31:59.538Z,21.2
2015-07-15T00:32:17.945Z,21.2
2015-07-15T00:32:36.320Z,21.2
2015-07-15T00:32:54.759Z,21.2
2015-07-15T00:33:13.119Z,21.2
2015-07-15T00:33:31.556Z,21.3
2015-07-15T00:33:49.968Z,21.3
2015-07-15T00:34:08.328Z,21.3
2015-07-15T00:34:26.703Z,21.3
2015-07-15T00:34:45.095Z,21.3
2015-07-15T00:35:03.486Z,21.3
2015-07-15T00:35:21.939Z,21.2
2015-07-15T00:35:40.330Z,21.2
2015-07-15T00:35:59.082Z,21.3
2015-07-15T00:36:17.644Z,21.3
2015-07-15T00:36:36.175Z,21.3
2015-07-15T00:36:54.615Z,21.3
2015-07-15T00:37:13.287Z,21.3
2015-07-15T00:37:31.599Z,21.3
2015-07-15T00:37:49.976Z,21.3
2015-07-15T00:38:08.414Z,21.4
2015-07-15T00:38:26.789Z,21.3
2015-07-15T00:38:45.166Z,21.3
2015-07-15T00:39:03.619Z,21.2
2015-07-15T00:39:22.025Z,21.3
2015-07-15T00:39:40.494Z,21.2
2015-07-15T00:39:58.965Z,21.2
2015-07-15T00:40:17.355Z,21.2
2015-07-15T00:40:35.746Z,21.2
2015-07-15T00:40:53.481Z,21.2
2015-07-15T00:41:12.216Z,21.2
2015-07-15T00:41:30.716Z,21.2
2015-07-15T00:41:49.219Z,21.2
2015-07-15T00:42:07.750Z,21.1
2015-07-15T00:42:26.265Z,21.1
2015-07-15T00:42:44.687Z,21.1
2015-07-15T00:43:03.142Z,21.1
2015-07-15T00:43:21.580Z,21.1
2015-07-15T00:43:40.111Z,21.1
2015-07-15T00:43:58.660Z,21.1
2015-07-15T00:44:17.129Z,21.1
2015-07-15T00:44:35.613Z,21.1
2015-07-15T00:44:54.005Z,21
2015-07-15T00:45:12.474Z,21
2015-07-15T00:45:30.849Z,21
2015-07-15T00:45:49.177Z,21
2015-07-15T00:46:07.555Z,21
2015-07-15T00:46:25.977Z,21
2015-07-15T00:46:44.477Z,20.9
2015-07-15T00:47:03.056Z,20.9
2015-07-15T00:47:21.462Z,20.9
2015-07-15T00:47:39.899Z,20.9
2015-07-15T00:47:58.370Z,20.9
2015-07-15T00:48:16.730Z,20.9
2015-07-15T00:48:35.198Z,20.9
2015-07-15T00:48:53.561Z,20.9
2015-07-15T00:49:11.967Z,20.9
2015-07-15T00:49:30.483Z,20.9
2015-07-15T00:49:48.873Z,20.9
2015-07-15T00:50:07.266Z,21
2015-07-15T00:50:25.953Z,20.9
2015-07-15T00:50:43.735Z,21
2015-07-15T00:51:02.221Z,21
2015-07-15T00:51:20.612Z,21
2015-07-15T00:51:38.987Z,21
2015-07-15T00:51:57.442Z,21
2015-07-15T00:52:15.848Z,21
2015-07-15T00:52:34.364Z,21
2015-07-15T00:52:52.832Z,20.9
2015-07-15T00:53:11.224Z,20.7
2015-07-15T00:53:29.661Z,20.7
2015-07-15T00:53:48.052Z,20.7
2015-07-15T00:54:06.460Z,20.8
2015-07-15T00:54:24.882Z,20.8
2015-07-15T00:54:43.335Z,20.8
2015-07-15T00:55:01.806Z,20.8
2015-07-15T00:55:20.228Z,20.8
2015-07-15T00:55:38.697Z,20.8
2015-07-15T00:55:57.150Z,20.8
2015-07-15T00:56:15.917Z,20.8
2015-07-15T00:56:34.527Z,20.8
2015-07-15T00:56:52.954Z,20.8
2015-07-15T00:57:11.456Z,20.8
2015-07-15T00:57:29.190Z,20.8
2015-07-15T00:57:47.596Z,20.8
2015-07-15T00:58:05.395Z,20.8
2015-07-15T00:58:23.808Z,20.8
2015-07-15T00:58:42.230Z,20.8
2015-07-15T00:59:00.714Z,20.7
2015-07-15T00:59:19.138Z,20.8
2015-07-15T00:59:36.904Z,20.7
2015-07-15T00:59:55.357Z,20.8
2015-07-15T01:00:13.781Z,20.7
2015-07-15T01:00:32.156Z,20.7
2015-07-15T01:00:50.625Z,20.7
2015-07-15T01:01:09.002Z,20.8
2015-07-15T01:01:27.497Z,20.7
2015-07-15T01:01:45.872Z,20.7
2015-07-15T01:02:04.262Z,20.8
2015-07-15T01:02:22.686Z,20.8
2015-07-15T01:02:41.124Z,20.8
2015-07-15T01:02:59.655Z,20.8
2015-07-15T01:03:18.095Z,20.8
2015-07-15T01:03:36.548Z,20.8
2015-07-15T01:03:54.923Z,20.8
2015-07-15T01:04:13.315Z,20.9
2015-07-15T01:04:31.722Z,20.9
2015-07-15T01:04:50.206Z,20.9
2015-07-15T01:05:08.737Z,20.8
2015-07-15T01:05:27.395Z,20.8
2015-07-15T01:05:45.802Z,20.8
2015-07-15T01:06:04.208Z,20.8
2015-07-15T01:06:22.631Z,20.8
2015-07-15T01:06:41.115Z,20.8
2015-07-15T01:06:59.756Z,20.7
2015-07-15T01:07:18.148Z,20.8
2015-07-15T01:07:36.008Z,20.8
2015-07-15T01:07:54.398Z,20.8
2015-07-15T01:08:12.898Z,20.7
2015-07-15T01:08:31.260Z,20.7
2015-07-15T01:08:49.822Z,20.7
2015-07-15T01:09:08.229Z,20.7
2015-07-15T01:09:26.627Z,20.7
2015-07-15T01:09:45.049Z,20.7
2015-07-15T01:10:03.565Z,20.7
2015-07-15T01:10:21.956Z,20.7
2015-07-15T01:10:40.394Z,20.7
2015-07-15T01:10:59.019Z,20.7
2015-07-15T01:11:17.417Z,20.7
2015-07-15T01:11:35.919Z,20.7
2015-07-15T01:11:54.294Z,20.8
2015-07-15T01:12:12.872Z,20.8
2015-07-15T01:12:31.280Z,20.8
2015-07-15T01:12:49.765Z,20.8
2015-07-15T01:13:08.171Z,20.8
2015-07-15T01:13:26.642Z,20.8
2015-07-15T01:13:45.407Z,20.8
2015-07-15T01:14:03.814Z,20.8
2015-07-15T01:14:22.220Z,20.8
2015-07-15T01:14:40.723Z,20.9
2015-07-15T01:14:59.254Z,20.9
2015-07-15T01:15:17.754Z,20.9
2015-07-15T01:15:36.349Z,20.9
2015-07-15T01:15:54.818Z,20.8
2015-07-15T01:16:13.271Z,20.8
2015-07-15T01:16:31.882Z,20.8
2015-07-15T01:16:50.320Z,20.8
2015-07-15T01:17:08.757Z,20.8
2015-07-15T01:17:26.648Z,20.9
2015-07-15T01:17:45.385Z,20.8
2015-07-15T01:18:03.932Z,20.8
2015-07-15T01:18:22.323Z,20.8
2015-07-15T01:18:40.683Z,20.8
2015-07-15T01:18:59.058Z,20.8
2015-07-15T01:19:17.511Z,20.7
2015-07-15T01:19:35.982Z,20.7
2015-07-15T01:19:54.373Z,20.8
2015-07-15T01:20:12.732Z,20.8
2015-07-15T01:20:31.248Z,20.8
2015-07-15T01:20:49.671Z,20.8
2015-07-15T01:21:08.062Z,20.9
2015-07-15T01:21:26.562Z,20.9
2015-07-15T01:21:45.034Z,20.9
2015-07-15T01:22:03.503Z,20.9
2015-07-15T01:22:22.362Z,20.8
2015-07-15T01:22:40.832Z,20.8
2015-07-15T01:22:59.285Z,20.8
2015-07-15T01:23:17.800Z,20.7
2015-07-15T01:23:36.316Z,20.7
2015-07-15T01:23:54.771Z,20.7
2015-07-15T01:24:13.302Z,20.7
2015-07-15T01:24:31.693Z,20.7
2015-07-15T01:24:50.226Z,20.7
2015-07-15T01:25:08.726Z,20.6
2015-07-15T01:25:27.304Z,20.6
2015-07-15T01:25:45.697Z,20.7
2015-07-15T01:26:04.353Z,20.6
2015-07-15T01:26:22.978Z,20.6
2015-07-15T01:26:41.603Z,20.6
2015-07-15T01:27:00.090Z,20.6
2015-07-15T01:27:18.496Z,20.7
2015-07-15T01:27:36.902Z,20.6
2015-07-15T01:27:55.435Z,20.6
2015-07-15T01:28:13.889Z,20.6
2015-07-15T01:28:32.248Z,20.7
2015-07-15T01:28:50.719Z,20.7
2015-07-15T01:29:09.141Z,20.8
2015-07-15T01:29:27.516Z,20.7
2015-07-15T01:29:45.891Z,20.6
2015-07-15T01:30:03.939Z,20.6
2015-07-15T01:30:22.361Z,20.5
2015-07-15T01:30:40.814Z,20.5
2015-07-15T01:30:59.316Z,20.5
2015-07-15T01:31:17.754Z,20.5
2015-07-15T01:31:36.129Z,20.5
2015-07-15T01:31:54.568Z,20.5
2015-07-15T01:32:13.100Z,20.5
2015-07-15T01:32:31.600Z,20.5
2015-07-15T01:32:50.084Z,20.5
2015-07-15T01:33:08.477Z,20.6
2015-07-15T01:33:26.852Z,20.5
2015-07-15T01:33:45.211Z,20.5
2015-07-15T01:34:03.588Z,20.5
2015-07-15T01:34:22.229Z,20.4
2015-07-15T01:34:40.651Z,20.4
2015-07-15T01:34:59.027Z,20.4
2015-07-15T01:35:17.745Z,20.4
2015-07-15T01:35:36.183Z,20.5
2015-07-15T01:35:53.964Z,20.4
2015-07-15T01:36:12.435Z,20.4
2015-07-15T01:36:30.997Z,20.5
2015-07-15T01:36:49.513Z,20.4
2015-07-15T01:37:07.282Z,20.3
2015-07-15T01:37:25.672Z,20.3
2015-07-15T01:37:44.282Z,20.3
2015-07-15T01:38:02.768Z,20.3
2015-07-15T01:38:21.237Z,20.3
2015-07-15T01:38:39.721Z,20.3
2015-07-15T01:38:58.191Z,20.3
2015-07-15T01:39:16.691Z,20.3
2015-07-15T01:39:35.144Z,20.4
2015-07-15T01:39:53.644Z,20.4
2015-07-15T01:40:12.005Z,20.4
2015-07-15T01:40:30.396Z,20.4
2015-07-15T01:40:48.865Z,20.5
2015-07-15T01:41:07.290Z,20.5
2015-07-15T01:41:25.774Z,20.5
2015-07-15T01:41:44.383Z,20.5
2015-07-15T01:42:03.010Z,20.4
2015-07-15T01:42:21.573Z,20.4
2015-07-15T01:42:40.182Z,20.4
2015-07-15T01:42:58.635Z,20.4
2015-07-15T01:43:17.011Z,20.4
2015-07-15T01:43:35.464Z,20.5
2015-07-15T01:43:54.136Z,20.5
2015-07-15T01:44:12.560Z,20.4
2015-07-15T01:44:31.029Z,20.4
2015-07-15T01:44:49.513Z,20.4
2015-07-15T01:45:08.078Z,20.4
2015-07-15T01:45:26.578Z,20.4
2015-07-15T01:45:44.437Z,20.4
2015-07-15T01:46:02.875Z,20.4
2015-07-15T01:46:21.236Z,20.4
2015-07-15T01:46:39.595Z,20.4
2015-07-15T01:46:58.080Z,20.4
2015-07-15T01:47:16.613Z,20.4
2015-07-15T01:47:35.144Z,20.5
2015-07-15T01:47:53.957Z,20.5
2015-07-15T01:48:12.631Z,20.4
2015-07-15T01:48:31.334Z,20.4
2015-07-15T01:48:49.771Z,20.4
2015-07-15T01:49:08.146Z,20.4
2015-07-15T01:49:26.617Z,20.4
2015-07-15T01:49:45.039Z,20.4
2015-07-15T01:50:03.633Z,20.3
2015-07-15T01:50:22.041Z,20.3
2015-07-15T01:50:40.557Z,20.4
2015-07-15T01:50:59.025Z,20.4
2015-07-15T01:51:17.651Z,20.4
2015-07-15T01:51:36.120Z,20.4
2015-07-15T01:51:54.511Z,20.4
2015-07-15T01:52:13.014Z,20.5
2015-07-15T01:52:31.436Z,20.5
2015-07-15T01:52:49.998Z,20.4
2015-07-15T01:53:08.451Z,20.3
2015-07-15T01:53:26.984Z,20.3
2015-07-15T01:53:45.547Z,20.4
2015-07-15T01:54:04.094Z,20.4
2015-07-15T01:54:22.565Z,20.4
2015-07-15T01:54:41.127Z,20.3
2015-07-15T01:54:59.580Z,20.3
2015-07-15T01:55:18.097Z,20.3
2015-07-15T01:55:36.581Z,20.2
2015-07-15T01:55:55.097Z,20.2
2015-07-15T01:56:13.519Z,20.2
2015-07-15T01:56:31.944Z,20.2
2015-07-15T01:56:50.334Z,20.3
2015-07-15T01:57:09.006Z,20.2
2015-07-15T01:57:27.429Z,20.2
2015-07-15T01:57:46.038Z,20.2
2015-07-15T01:58:04.413Z,20.3
2015-07-15T01:58:22.806Z,20.3
2015-07-15T01:58:41.384Z,20.3
2015-07-15T01:58:59.822Z,20.2
2015-07-15T01:59:18.259Z,20.2
2015-07-15T01:59:36.074Z,20.1
2015-07-15T01:59:54.495Z,20.1
2015-07-15T02:00:12.933Z,20.1
2015-07-15T02:00:30.764Z,20.2
2015-07-15T02:00:49.170Z,20.2
2015-07-15T02:01:07.623Z,20.2
2015-07-15T02:01:26.171Z,20.3
2015-07-15T02:01:44.578Z,20.2
2015-07-15T02:02:03.046Z,20.2
2015-07-15T02:02:21.546Z,20.2
2015-07-15T02:02:40.564Z,20.2
2015-07-15T02:02:59.126Z,20.2
2015-07-15T02:03:17.439Z,20.2
2015-07-15T02:03:35.895Z,20.2
2015-07-15T02:03:54.301Z,20.1
2015-07-15T02:04:12.676Z,20.1
2015-07-15T02:04:31.115Z,20
2015-07-15T02:04:49.599Z,20
2015-07-15T02:05:07.974Z,20
2015-07-15T02:05:26.349Z,20
2015-07-15T02:05:44.976Z,20
2015-07-15T02:06:03.429Z,19.9
2015-07-15T02:06:22.164Z,19.9
2015-07-15T02:06:40.791Z,20
2015-07-15T02:06:59.306Z,19.9
2015-07-15T02:07:17.775Z,20
2015-07-15T02:07:36.511Z,20
2015-07-15T02:07:55.090Z,20
2015-07-15T02:08:13.683Z,19.9
2015-07-15T02:08:32.074Z,19.9
2015-07-15T02:08:50.592Z,19.9
2015-07-15T02:09:08.623Z,19.9
2015-07-15T02:09:27.029Z,19.9
2015-07-15T02:09:45.454Z,19.9
2015-07-15T02:10:03.970Z,19.9
2015-07-15T02:10:22.360Z,19.9
2015-07-15T02:10:40.784Z,19.8
2015-07-15T02:10:59.503Z,19.8
2015-07-15T02:11:17.956Z,19.8
2015-07-15T02:11:36.409Z,19.7
2015-07-15T02:11:54.894Z,19.8
2015-07-15T02:12:13.363Z,19.7
2015-07-15T02:12:31.785Z,19.7
2015-07-15T02:12:50.507Z,19.6
2015-07-15T02:13:09.007Z,19.7
2015-07-15T02:13:27.397Z,19.8
2015-07-15T02:13:46.039Z,19.8
2015-07-15T02:14:05.133Z,19.7
2015-07-15T02:14:23.602Z,19.7
2015-07-15T02:14:42.148Z,19.6
2015-07-15T02:15:00.776Z,19.7
2015-07-15T02:15:19.355Z,19.7
2015-07-15T02:15:37.714Z,19.7
2015-07-15T02:15:56.090Z,19.7
2015-07-15T02:16:14.715Z,19.7
2015-07-15T02:16:33.371Z,19.7
2015-07-15T02:16:51.873Z,19.6
2015-07-15T02:17:10.608Z,19.6
2015-07-15T02:17:29.154Z,19.6
2015-07-15T02:17:47.717Z,19.6
2015-07-15T02:18:06.578Z,19.6
2015-07-15T02:18:25.406Z,19.5
2015-07-15T02:18:43.938Z,19.5
2015-07-15T02:19:02.502Z,19.5
2015-07-15T02:19:21.096Z,19.6
2015-07-15T02:19:39.596Z,19.5
2015-07-15T02:19:58.145Z,19.5
2015-07-15T02:20:16.817Z,19.5
2015-07-15T02:20:35.254Z,19.5
2015-07-15T02:20:53.991Z,19.5
2015-07-15T02:21:12.366Z,19.5
2015-07-15T02:21:30.194Z,19.4
2015-07-15T02:21:48.569Z,19.5
2015-07-15T02:22:07.305Z,19.5
2015-07-15T02:22:26.008Z,19.6
2015-07-15T02:22:44.477Z,19.6
2015-07-15T02:23:03.228Z,19.6
2015-07-15T02:23:21.665Z,19.5
2015-07-15T02:23:40.197Z,19.6
2015-07-15T02:23:58.668Z,19.6
2015-07-15T02:24:17.028Z,19.5
2015-07-15T02:24:35.450Z,19.5
2015-07-15T02:24:53.887Z,19.5
2015-07-15T02:25:12.482Z,19.5
2015-07-15T02:25:30.873Z,19.5
2015-07-15T02:25:48.732Z,19.5
2015-07-15T02:26:06.546Z,19.5
2015-07-15T02:26:24.921Z,19.4
2015-07-15T02:26:43.609Z,19.4
2015-07-15T02:27:02.081Z,19.4
2015-07-15T02:27:20.596Z,19.5
2015-07-15T02:27:38.956Z,19.6
2015-07-15T02:27:57.424Z,19.5
2015-07-15T02:28:15.800Z,19.5
2015-07-15T02:28:34.238Z,19.5
2015-07-15T02:28:52.800Z,19.5
2015-07-15T02:29:11.194Z,19.5
2015-07-15T02:29:29.569Z,19.5
2015-07-15T02:29:47.960Z,19.5
2015-07-15T02:30:06.414Z,19.5
2015-07-15T02:30:24.945Z,19.5
2015-07-15T02:30:43.586Z,19.5
2015-07-15T02:31:02.008Z,19.5
2015-07-15T02:31:20.463Z,19.5
2015-07-15T02:31:38.994Z,19.5
2015-07-15T02:31:57.369Z,19.5
2015-07-15T02:32:16.043Z,19.5
2015-07-15T02:32:34.699Z,19.5
2015-07-15T02:32:53.105Z,19.5
2015-07-15T02:33:11.765Z,19.6
2015-07-15T02:33:30.233Z,19.6
2015-07-15T02:33:48.733Z,19.5
2015-07-15T02:34:07.155Z,19.5
2015-07-15T02:34:25.532Z,19.5
2015-07-15T02:34:44.220Z,19.6
2015-07-15T02:35:02.798Z,19.6
2015-07-15T02:35:21.174Z,19.6
2015-07-15T02:35:39.705Z,19.6
2015-07-15T02:35:58.533Z,19.6
2015-07-15T02:36:16.942Z,19.6
2015-07-15T02:36:35.505Z,19.6
2015-07-15T02:36:54.146Z,19.6
2015-07-15T02:37:12.568Z,19.6
2015-07-15T02:37:31.115Z,19.6
2015-07-15T02:37:49.959Z,19.6
2015-07-15T02:38:07.678Z,19.6
2015-07-15T02:38:26.086Z,19.6
2015-07-15T02:38:44.539Z,19.6
2015-07-15T02:39:02.992Z,19.5
2015-07-15T02:39:21.432Z,19.5
2015-07-15T02:39:40.010Z,19.5
2015-07-15T02:39:58.463Z,19.5
2015-07-15T02:40:17.012Z,19.5
2015-07-15T02:40:35.418Z,19.5
2015-07-15T02:40:54.059Z,19.5
2015-07-15T02:41:12.637Z,19.5
2015-07-15T02:41:31.201Z,19.5
2015-07-15T02:41:49.748Z,19.6
2015-07-15T02:42:08.123Z,19.6
2015-07-15T02:42:26.516Z,19.6
2015-07-15T02:42:44.938Z,19.5
2015-07-15T02:43:03.469Z,19.5
2015-07-15T02:43:22.034Z,19.5
2015-07-15T02:43:40.549Z,19.5
2015-07-15T02:43:58.924Z,19.4
2015-07-15T02:44:17.362Z,19.4
2015-07-15T02:44:35.864Z,19.4
2015-07-15T02:44:54.286Z,19.4
2015-07-15T02:45:12.692Z,19.4
2015-07-15T02:45:31.194Z,19.4
2015-07-15T02:45:49.584Z,19.4
2015-07-15T02:46:07.975Z,19.5
2015-07-15T02:46:26.540Z,19.5
2015-07-15T02:46:44.946Z,19.5
2015-07-15T02:47:03.430Z,19.4
2015-07-15T02:47:21.946Z,19.4
2015-07-15T02:47:40.698Z,19.4
2015-07-15T02:47:59.448Z,19.4
2015-07-15T02:48:17.995Z,19.3
2015-07-15T02:48:36.419Z,19.3
2015-07-15T02:48:55.075Z,19.3
2015-07-15T02:49:13.544Z,19.3
2015-07-15T02:49:32.061Z,19.2
2015-07-15T02:49:50.702Z,19.1
2015-07-15T02:50:08.936Z,19.1
2015-07-15T02:50:27.671Z,19.1
2015-07-15T02:50:46.094Z,19.1
2015-07-15T02:51:04.579Z,19.1
2015-07-15T02:51:23.188Z,19.1
2015-07-15T02:51:41.565Z,19.1
2015-07-15T02:52:00.065Z,19
2015-07-15T02:52:18.440Z,19
2015-07-15T02:52:36.833Z,19
2015-07-15T02:52:55.255Z,19
2015-07-15T02:53:13.833Z,19
2015-07-15T02:53:32.208Z,19
2015-07-15T02:53:50.804Z,19
2015-07-15T02:54:09.319Z,19
2015-07-15T02:54:27.772Z,19
2015-07-15T02:54:46.226Z,19
2015-07-15T02:55:04.680Z,19
2015-07-15T02:55:23.086Z,19
2015-07-15T02:55:41.510Z,19
2015-07-15T02:55:59.994Z,19
2015-07-15T02:56:18.572Z,19
2015-07-15T02:56:36.994Z,19
2015-07-15T02:56:55.466Z,19.1
2015-07-15T02:57:13.919Z,19.1
2015-07-15T02:57:32.513Z,19.1
2015-07-15T02:57:50.937Z,19.1
2015-07-15T02:58:09.546Z,19.1
2015-07-15T02:58:27.905Z,19.1
2015-07-15T02:58:46.359Z,19
2015-07-15T02:59:04.734Z,19
2015-07-15T02:59:23.297Z,19
2015-07-15T02:59:41.734Z,19
2015-07-15T03:00:00.175Z,19
2015-07-15T03:00:18.566Z,19
2015-07-15T03:00:37.222Z,19
2015-07-15T03:00:55.848Z,19
2015-07-15T03:01:14.317Z,19
2015-07-15T03:01:32.676Z,19
2015-07-15T03:01:51.115Z,19
2015-07-15T03:02:09.522Z,19
2015-07-15T03:02:27.975Z,18.9
2015-07-15T03:02:46.444Z,18.9
2015-07-15T03:03:04.900Z,18.9
2015-07-15T03:03:23.400Z,18.9
2015-07-15T03:03:41.837Z,18.8
2015-07-15T03:04:00.244Z,18.7
2015-07-15T03:04:18.729Z,18.7
2015-07-15T03:04:37.229Z,18.7
2015-07-15T03:04:55.653Z,18.7
2015-07-15T03:05:14.043Z,18.7
2015-07-15T03:05:32.496Z,18.7
2015-07-15T03:05:50.889Z,18.7
2015-07-15T03:06:09.295Z,18.7
2015-07-15T03:06:27.780Z,18.7
2015-07-15T03:06:46.248Z,18.7
2015-07-15T03:07:04.735Z,18.7
2015-07-15T03:07:23.313Z,18.7
2015-07-15T03:07:41.860Z,18.8
2015-07-15T03:08:00.393Z,18.8
2015-07-15T03:08:18.799Z,18.7
2015-07-15T03:08:37.393Z,18.7
2015-07-15T03:08:55.848Z,18.8
2015-07-15T03:09:14.254Z,18.7
2015-07-15T03:09:32.989Z,18.7
2015-07-15T03:09:51.442Z,18.6
2015-07-15T03:10:09.835Z,18.7
2015-07-15T03:10:27.710Z,18.7
2015-07-15T03:10:46.225Z,18.7
2015-07-15T03:11:04.883Z,18.6
2015-07-15T03:11:23.415Z,18.7
2015-07-15T03:11:41.977Z,18.7
2015-07-15T03:12:00.401Z,18.7
2015-07-15T03:12:18.776Z,18.7
2015-07-15T03:12:37.182Z,18.7
2015-07-15T03:12:55.635Z,18.7
2015-07-15T03:13:14.216Z,18.7
2015-07-15T03:13:32.684Z,18.7
2015-07-15T03:13:51.184Z,18.7
2015-07-15T03:14:09.686Z,18.7
2015-07-15T03:14:28.249Z,18.7
2015-07-15T03:14:46.124Z,18.8
2015-07-15T03:15:04.657Z,18.7
2015-07-15T03:15:23.095Z,18.7
2015-07-15T03:15:41.735Z,18.7
2015-07-15T03:16:00.252Z,18.7
2015-07-15T03:16:18.674Z,18.7
2015-07-15T03:16:37.096Z,18.7
2015-07-15T03:16:55.752Z,18.8
2015-07-15T03:17:14.177Z,18.7
2015-07-15T03:17:32.583Z,18.8
2015-07-15T03:17:51.114Z,18.8
2015-07-15T03:18:09.694Z,18.8
2015-07-15T03:18:28.413Z,18.8
2015-07-15T03:18:46.835Z,18.8
2015-07-15T03:19:05.212Z,18.8
2015-07-15T03:19:23.993Z,18.9
2015-07-15T03:19:42.399Z,18.8
2015-07-15T03:20:00.899Z,18.8
2015-07-15T03:20:19.666Z,18.7
2015-07-15T03:20:38.025Z,18.7
2015-07-15T03:20:56.572Z,18.8
2015-07-15T03:21:15.357Z,18.8
2015-07-15T03:21:33.732Z,18.7
2015-07-15T03:21:52.247Z,18.7
2015-07-15T03:22:10.654Z,18.7
2015-07-15T03:22:29.233Z,18.8
2015-07-15T03:22:47.873Z,18.8
2015-07-15T03:23:06.498Z,18.8
2015-07-15T03:23:24.938Z,18.9
2015-07-15T03:23:43.313Z,18.9
2015-07-15T03:24:02.078Z,18.8
2015-07-15T03:24:20.502Z,18.8
2015-07-15T03:24:39.158Z,18.8
2015-07-15T03:24:57.815Z,18.8
2015-07-15T03:25:16.240Z,18.8
2015-07-15T03:25:34.661Z,18.8
2015-07-15T03:25:53.052Z,18.8
2015-07-15T03:26:11.459Z,18.8
2015-07-15T03:26:30.022Z,18.8
2015-07-15T03:26:48.491Z,18.8
2015-07-15T03:27:06.912Z,18.8
2015-07-15T03:27:25.322Z,18.8
2015-07-15T03:27:43.822Z,18.8
2015-07-15T03:28:02.290Z,18.9
2015-07-15T03:28:20.729Z,18.9
2015-07-15T03:28:39.713Z,18.9
2015-07-15T03:28:58.495Z,18.9
2015-07-15T03:29:16.309Z,18.8
2015-07-15T03:29:34.715Z,18.8
2015-07-15T03:29:53.122Z,18.9
2015-07-15T03:30:11.715Z,18.9
2015-07-15T03:30:30.170Z,18.9
2015-07-15T03:30:48.577Z,18.8
2015-07-15T03:31:07.108Z,18.8
2015-07-15T03:31:25.517Z,18.8
2015-07-15T03:31:43.986Z,18.8
2015-07-15T03:32:02.580Z,18.8
2015-07-15T03:32:21.049Z,18.8
2015-07-15T03:32:38.815Z,18.8
2015-07-15T03:32:57.284Z,18.8
2015-07-15T03:33:15.846Z,18.8
2015-07-15T03:33:34.317Z,18.8
2015-07-15T03:33:52.911Z,18.9
2015-07-15T03:34:11.270Z,18.9
2015-07-15T03:34:29.897Z,19
2015-07-15T03:34:48.382Z,19.1
2015-07-15T03:35:06.991Z,19.1
2015-07-15T03:35:25.368Z,19.1
2015-07-15T03:35:43.977Z,19.1
2015-07-15T03:36:02.665Z,19
2015-07-15T03:36:21.087Z,18.9
2015-07-15T03:36:39.619Z,18.9
2015-07-15T03:36:57.994Z,18.9
2015-07-15T03:37:16.416Z,19
2015-07-15T03:37:34.856Z,19
2015-07-15T03:37:53.450Z,19
2015-07-15T03:38:11.934Z,19
2015-07-15T03:38:30.327Z,19
2015-07-15T03:38:48.702Z,19
2015-07-15T03:39:07.530Z,19
2015-07-15T03:39:26.015Z,19.1
2015-07-15T03:39:44.407Z,19.1
2015-07-15T03:40:02.829Z,19.1
2015-07-15T03:40:21.298Z,19.2
2015-07-15T03:40:39.925Z,19.2
2015-07-15T03:40:58.331Z,19.2
2015-07-15T03:41:16.878Z,19.2
2015-07-15T03:41:35.458Z,19.2
2015-07-15T03:41:53.989Z,19.2
2015-07-15T03:42:12.599Z,19.2
2015-07-15T03:42:31.023Z,19.2
2015-07-15T03:42:49.648Z,19.2
2015-07-15T03:43:08.069Z,19.1
2015-07-15T03:43:26.476Z,19.2
2015-07-15T03:43:44.868Z,19.2
2015-07-15T03:44:03.462Z,19.2
2015-07-15T03:44:21.900Z,19.2
2015-07-15T03:44:40.416Z,19.3
2015-07-15T03:44:58.869Z,19.3
2015-07-15T03:45:17.260Z,19.3
2015-07-15T03:45:35.637Z,19.3
2015-07-15T03:45:54.246Z,19.3
2015-07-15T03:46:12.668Z,19.3
2015-07-15T03:46:31.418Z,19.2
2015-07-15T03:46:50.045Z,19.2
2015-07-15T03:47:08.451Z,19.2
2015-07-15T03:47:26.873Z,19.2
2015-07-15T03:47:45.517Z,19.2
2015-07-15T03:48:03.939Z,19.2
2015-07-15T03:48:22.439Z,19.2
2015-07-15T03:48:40.862Z,19.2
2015-07-15T03:48:59.502Z,19.2
2015-07-15T03:49:17.893Z,19.3
2015-07-15T03:49:36.315Z,19.3
2015-07-15T03:49:55.021Z,19.4
2015-07-15T03:50:13.443Z,19.3
2015-07-15T03:50:32.099Z,19.2
2015-07-15T03:50:50.631Z,19.2
2015-07-15T03:51:09.147Z,19.3
2015-07-15T03:51:27.663Z,19.2
2015-07-15T03:51:46.180Z,19.2
2015-07-15T03:52:04.680Z,19.3
2015-07-15T03:52:23.243Z,19.3
2015-07-15T03:52:41.774Z,19.3
2015-07-15T03:53:00.371Z,19.2
2015-07-15T03:53:18.746Z,19.2
2015-07-15T03:53:37.121Z,19.2
2015-07-15T03:53:55.731Z,19.2
2015-07-15T03:54:14.247Z,19.2
2015-07-15T03:54:32.700Z,19.2
2015-07-15T03:54:51.247Z,19.3
2015-07-15T03:55:09.672Z,19.3
2015-07-15T03:55:28.093Z,19.3
2015-07-15T03:55:46.578Z,19.3
2015-07-15T03:56:05.032Z,19.2
2015-07-15T03:56:23.548Z,19.3
2015-07-15T03:56:42.141Z,19.3
2015-07-15T03:57:00.594Z,19.3
2015-07-15T03:57:18.971Z,19.3
2015-07-15T03:57:37.706Z,19.2
2015-07-15T03:57:56.175Z,19.3
2015-07-15T03:58:14.615Z,19.3
2015-07-15T03:58:33.162Z,19.3
2015-07-15T03:58:51.584Z,19.3
2015-07-15T03:59:10.008Z,19.4
2015-07-15T03:59:28.414Z,19.4
2015-07-15T03:59:46.805Z,19.3
2015-07-15T04:00:05.539Z,19.4
2015-07-15T04:00:24.228Z,19.3
2015-07-15T04:00:42.822Z,19.3
2015-07-15T04:01:01.244Z,19.3
2015-07-15T04:01:19.839Z,19.4
2015-07-15T04:01:37.589Z,19.4
2015-07-15T04:01:56.261Z,19.4
2015-07-15T04:02:15.044Z,19.4
2015-07-15T04:02:33.778Z,19.4
2015-07-15T04:02:52.185Z,19.4
2015-07-15T04:03:10.765Z,19.4
2015-07-15T04:03:29.405Z,19.4
2015-07-15T04:03:48.124Z,19.4
2015-07-15T04:04:06.499Z,19.4
2015-07-15T04:04:24.908Z,19.4
2015-07-15T04:04:43.455Z,19.4
2015-07-15T04:05:01.830Z,19.5
2015-07-15T04:05:20.425Z,19.5
2015-07-15T04:05:39.222Z,19.5
2015-07-15T04:05:57.581Z,19.6
2015-07-15T04:06:16.147Z,19.6
2015-07-15T04:06:34.694Z,19.6
2015-07-15T04:06:53.084Z,19.5
2015-07-15T04:07:11.584Z,19.4
2015-07-15T04:07:29.991Z,19.4
2015-07-15T04:07:47.960Z,19.4